sensor_id;sensor_type;location;lat;lon;timestamp;pressure;altitude;pressure_sealevel;temperature;humidity
34177;BME280;20450;49.074;9.158;2023-08-20T00:01:35;100028.91;;;24.48;84.26
34177;BME280;20450;49.074;9.158;2023-08-20T00:04:09;100028.03;;;24.53;83.80
34177;BME280;20450;49.074;9.158;2023-08-20T00:06:38;100033.56;;;24.53;83.24
34177;BME280;20450;49.074;9.158;2023-08-20T00:09:18;100027.19;;;24.52;84.08
34177;BME280;20450;49.074;9.158;2023-08-20T00:11:54;100026.59;;;24.55;83.68
34177;BME280;20450;49.074;9.158;2023-08-20T00:14:51;100029.16;;;24.52;83.91
34177;BME280;20450;49.074;9.158;2023-08-20T00:17:23;100031.38;;;24.50;83.98
34177;BME280;20450;49.074;9.158;2023-08-20T00:19:53;100026.16;;;24.48;83.53
34177;BME280;20450;49.074;9.158;2023-08-20T00:22:22;100034.28;;;24.40;83.83
34177;BME280;20450;49.074;9.158;2023-08-20T00:25:07;100028.28;;;24.33;84.28
34177;BME280;20450;49.074;9.158;2023-08-20T00:27:38;100025.44;;;24.19;84.28
34177;BME280;20450;49.074;9.158;2023-08-20T00:30:10;100032.91;;;24.19;84.61
34177;BME280;20450;49.074;9.158;2023-08-20T00:32:48;100041.16;;;24.19;84.50
34177;BME280;20450;49.074;9.158;2023-08-20T00:35:19;100034.31;;;24.16;84.40
34177;BME280;20450;49.074;9.158;2023-08-20T00:37:51;100040.72;;;24.12;84.68
34177;BME280;20450;49.074;9.158;2023-08-20T00:40:46;100036.00;;;24.12;84.63
34177;BME280;20450;49.074;9.158;2023-08-20T00:44:37;100041.47;;;24.17;84.57
34177;BME280;20450;49.074;9.158;2023-08-20T00:47:16;100044.47;;;24.21;84.50
34177;BME280;20450;49.074;9.158;2023-08-20T00:49:55;100043.59;;;24.25;84.14
34177;BME280;20450;49.074;9.158;2023-08-20T00:52:24;100035.13;;;24.17;84.54
34177;BME280;20450;49.074;9.158;2023-08-20T00:54:52;100038.25;;;24.10;84.91
34177;BME280;20450;49.074;9.158;2023-08-20T00:57:29;100043.06;;;24.00;85.47
34177;BME280;20450;49.074;9.158;2023-08-20T00:59:57;100034.81;;;23.95;85.96
34177;BME280;20450;49.074;9.158;2023-08-20T01:02:35;100048.28;;;23.73;86.54
34177;BME280;20450;49.074;9.158;2023-08-20T01:05:09;100047.03;;;23.84;86.68
34177;BME280;20450;49.074;9.158;2023-08-20T01:08:04;100041.44;;;23.94;86.20
34177;BME280;20450;49.074;9.158;2023-08-20T01:10:56;100042.22;;;23.99;85.50
34177;BME280;20450;49.074;9.158;2023-08-20T01:13:40;100043.28;;;24.03;85.40
34177;BME280;20450;49.074;9.158;2023-08-20T01:16:08;100037.75;;;24.03;84.89
34177;BME280;20450;49.074;9.158;2023-08-20T01:18:37;100039.63;;;24.08;84.21
34177;BME280;20450;49.074;9.158;2023-08-20T01:21:20;100038.28;;;24.05;84.44
34177;BME280;20450;49.074;9.158;2023-08-20T01:24:07;100038.13;;;23.92;85.19
34177;BME280;20450;49.074;9.158;2023-08-20T01:27:06;100043.66;;;23.97;84.96
34177;BME280;20450;49.074;9.158;2023-08-20T01:29:45;100046.63;;;24.00;85.00
34177;BME280;20450;49.074;9.158;2023-08-20T01:32:13;100048.75;;;24.08;84.94
34177;BME280;20450;49.074;9.158;2023-08-20T01:34:45;100053.69;;;24.11;83.92
34177;BME280;20450;49.074;9.158;2023-08-20T01:37:13;100050.63;;;24.13;83.62
34177;BME280;20450;49.074;9.158;2023-08-20T01:39:40;100038.69;;;23.94;83.74
34177;BME280;20450;49.074;9.158;2023-08-20T01:42:07;100047.00;;;23.89;84.64
34177;BME280;20450;49.074;9.158;2023-08-20T01:44:37;100055.81;;;23.91;85.08
34177;BME280;20450;49.074;9.158;2023-08-20T01:47:05;100054.97;;;23.90;85.17
34177;BME280;20450;49.074;9.158;2023-08-20T01:49:32;100057.75;;;23.90;85.29
34177;BME280;20450;49.074;9.158;2023-08-20T01:52:04;100059.38;;;23.91;84.92
34177;BME280;20450;49.074;9.158;2023-08-20T01:54:37;100064.59;;;23.93;84.62
34177;BME280;20450;49.074;9.158;2023-08-20T01:57:04;100068.78;;;23.95;84.48
34177;BME280;20450;49.074;9.158;2023-08-20T01:59:32;100063.47;;;23.99;84.22
34177;BME280;20450;49.074;9.158;2023-08-20T02:02:06;100062.44;;;23.90;84.37
34177;BME280;20450;49.074;9.158;2023-08-20T02:04:33;100063.09;;;23.82;85.11
34177;BME280;20450;49.074;9.158;2023-08-20T02:07:02;100070.25;;;23.83;85.04
34177;BME280;20450;49.074;9.158;2023-08-20T02:09:33;100071.06;;;23.83;85.37
34177;BME280;20450;49.074;9.158;2023-08-20T02:12:01;100071.56;;;23.85;85.27
34177;BME280;20450;49.074;9.158;2023-08-20T02:14:29;100071.38;;;23.82;84.67
34177;BME280;20450;49.074;9.158;2023-08-20T02:17:01;100065.25;;;23.85;84.71
34177;BME280;20450;49.074;9.158;2023-08-20T02:19:34;100068.63;;;23.77;84.53
34177;BME280;20450;49.074;9.158;2023-08-20T02:22:03;100067.00;;;23.76;84.20
34177;BME280;20450;49.074;9.158;2023-08-20T02:24:34;100063.84;;;23.59;84.82
34177;BME280;20450;49.074;9.158;2023-08-20T02:27:01;100055.56;;;23.59;84.79
34177;BME280;20450;49.074;9.158;2023-08-20T02:29:28;100046.50;;;23.58;85.09
34177;BME280;20450;49.074;9.158;2023-08-20T02:31:56;100058.88;;;23.61;84.96
34177;BME280;20450;49.074;9.158;2023-08-20T02:34:25;100053.06;;;23.62;84.93
34177;BME280;20450;49.074;9.158;2023-08-20T02:36:55;100051.13;;;23.63;85.10
34177;BME280;20450;49.074;9.158;2023-08-20T02:39:23;100053.59;;;23.64;84.25
34177;BME280;20450;49.074;9.158;2023-08-20T02:41:54;100046.19;;;23.60;84.18
34177;BME280;20450;49.074;9.158;2023-08-20T02:44:29;100036.91;;;23.51;84.04
34177;BME280;20450;49.074;9.158;2023-08-20T02:46:56;100043.69;;;23.30;85.23
34177;BME280;20450;49.074;9.158;2023-08-20T02:49:23;100042.34;;;23.22;86.10
34177;BME280;20450;49.074;9.158;2023-08-20T02:51:51;100042.72;;;23.10;86.40
34177;BME280;20450;49.074;9.158;2023-08-20T02:54:21;100035.53;;;23.09;86.80
34177;BME280;20450;49.074;9.158;2023-08-20T02:56:51;100038.97;;;22.91;87.82
34177;BME280;20450;49.074;9.158;2023-08-20T02:59:37;100038.97;;;22.91;87.97
34177;BME280;20450;49.074;9.158;2023-08-20T03:02:05;100040.34;;;22.94;88.00
34177;BME280;20450;49.074;9.158;2023-08-20T03:04:39;100040.31;;;22.99;88.16
34177;BME280;20450;49.074;9.158;2023-08-20T03:07:07;100044.38;;;23.06;88.15
34177;BME280;20450;49.074;9.158;2023-08-20T03:09:36;100038.56;;;23.13;87.87
34177;BME280;20450;49.074;9.158;2023-08-20T03:12:04;100040.44;;;23.23;87.17
34177;BME280;20450;49.074;9.158;2023-08-20T03:14:32;100041.22;;;23.28;86.83
34177;BME280;20450;49.074;9.158;2023-08-20T03:17:00;100039.50;;;23.37;86.46
34177;BME280;20450;49.074;9.158;2023-08-20T03:19:34;100054.59;;;23.45;86.20
34177;BME280;20450;49.074;9.158;2023-08-20T03:22:03;100041.34;;;23.47;85.44
34177;BME280;20450;49.074;9.158;2023-08-20T03:24:31;100051.31;;;23.43;85.77
34177;BME280;20450;49.074;9.158;2023-08-20T03:27:00;100049.28;;;23.19;86.83
34177;BME280;20450;49.074;9.158;2023-08-20T03:29:28;100056.03;;;22.98;87.68
34177;BME280;20450;49.074;9.158;2023-08-20T03:32:03;100056.69;;;22.80;88.26
34177;BME280;20450;49.074;9.158;2023-08-20T03:34:44;100059.19;;;22.77;89.29
34177;BME280;20450;49.074;9.158;2023-08-20T03:37:16;100055.72;;;22.61;89.71
34177;BME280;20450;49.074;9.158;2023-08-20T03:39:45;100057.09;;;22.49;90.72
34177;BME280;20450;49.074;9.158;2023-08-20T03:42:38;100059.06;;;22.43;91.39
34177;BME280;20450;49.074;9.158;2023-08-20T03:45:11;100065.13;;;22.50;90.79
34177;BME280;20450;49.074;9.158;2023-08-20T03:47:39;100062.91;;;22.52;90.36
34177;BME280;20450;49.074;9.158;2023-08-20T03:50:12;100060.13;;;22.57;90.10
34177;BME280;20450;49.074;9.158;2023-08-20T03:52:41;100064.53;;;22.53;89.87
34177;BME280;20450;49.074;9.158;2023-08-20T03:55:13;100054.38;;;22.54;89.68
34177;BME280;20450;49.074;9.158;2023-08-20T03:57:44;100055.16;;;22.54;89.59
34177;BME280;20450;49.074;9.158;2023-08-20T04:00:17;100065.06;;;22.60;89.64
34177;BME280;20450;49.074;9.158;2023-08-20T04:02:45;100062.28;;;22.65;89.16
34177;BME280;20450;49.074;9.158;2023-08-20T04:05:16;100068.31;;;22.72;89.35
34177;BME280;20450;49.074;9.158;2023-08-20T04:08:06;100078.22;;;22.73;88.73
34177;BME280;20450;49.074;9.158;2023-08-20T04:10:42;100078.53;;;22.67;89.00
34177;BME280;20450;49.074;9.158;2023-08-20T04:13:15;100072.50;;;22.60;89.47
34177;BME280;20450;49.074;9.158;2023-08-20T04:15:45;100063.69;;;22.58;89.33
34177;BME280;20450;49.074;9.158;2023-08-20T04:18:15;100068.38;;;22.57;89.67
34177;BME280;20450;49.074;9.158;2023-08-20T04:20:45;100075.00;;;22.56;89.66
34177;BME280;20450;49.074;9.158;2023-08-20T04:23:14;100068.72;;;22.36;90.99
34177;BME280;20450;49.074;9.158;2023-08-20T04:25:47;100069.84;;;22.35;91.00
34177;BME280;20450;49.074;9.158;2023-08-20T04:28:22;100080.81;;;22.40;90.59
34177;BME280;20450;49.074;9.158;2023-08-20T04:30:52;100072.56;;;22.45;90.82
34177;BME280;20450;49.074;9.158;2023-08-20T04:33:26;100072.59;;;22.35;89.90
34177;BME280;20450;49.074;9.158;2023-08-20T04:35:54;100066.34;;;22.09;91.46
34177;BME280;20450;49.074;9.158;2023-08-20T04:38:26;100072.59;;;22.30;91.07
34177;BME280;20450;49.074;9.158;2023-08-20T04:40:57;100081.59;;;22.45;90.37
34177;BME280;20450;49.074;9.158;2023-08-20T04:43:41;100081.84;;;22.64;89.75
34177;BME280;20450;49.074;9.158;2023-08-20T04:46:15;100083.13;;;22.81;88.71
34177;BME280;20450;49.074;9.158;2023-08-20T04:48:52;100080.25;;;23.01;87.58
34177;BME280;20450;49.074;9.158;2023-08-20T04:51:19;100086.19;;;23.24;86.56
34177;BME280;20450;49.074;9.158;2023-08-20T04:53:46;100078.09;;;23.37;84.45
34177;BME280;20450;49.074;9.158;2023-08-20T04:56:21;100083.03;;;23.40;83.96
34177;BME280;20450;49.074;9.158;2023-08-20T04:58:52;100084.06;;;23.49;82.43
34177;BME280;20450;49.074;9.158;2023-08-20T05:01:39;100093.94;;;23.55;82.79
34177;BME280;20450;49.074;9.158;2023-08-20T05:04:09;100094.69;;;23.66;82.49
34177;BME280;20450;49.074;9.158;2023-08-20T05:06:43;100100.44;;;24.03;80.58
34177;BME280;20450;49.074;9.158;2023-08-20T05:09:13;100101.88;;;24.24;78.95
34177;BME280;20450;49.074;9.158;2023-08-20T05:11:43;100104.25;;;24.54;78.01
34177;BME280;20450;49.074;9.158;2023-08-20T05:14:11;100110.41;;;24.93;76.58
34177;BME280;20450;49.074;9.158;2023-08-20T05:16:39;100101.75;;;25.18;75.50
34177;BME280;20450;49.074;9.158;2023-08-20T05:19:10;100091.28;;;25.52;74.33
34177;BME280;20450;49.074;9.158;2023-08-20T05:21:39;100094.19;;;25.74;72.98
34177;BME280;20450;49.074;9.158;2023-08-20T05:24:08;100080.81;;;25.49;73.13
34177;BME280;20450;49.074;9.158;2023-08-20T05:26:42;100087.53;;;25.06;74.43
34177;BME280;20450;49.074;9.158;2023-08-20T05:29:11;100073.28;;;25.18;74.79
34177;BME280;20450;49.074;9.158;2023-08-20T05:31:39;100081.25;;;24.82;75.57
34177;BME280;20450;49.074;9.158;2023-08-20T05:34:10;100084.06;;;25.19;74.72
34177;BME280;20450;49.074;9.158;2023-08-20T05:36:38;100084.81;;;25.57;73.38
34177;BME280;20450;49.074;9.158;2023-08-20T05:39:09;100096.72;;;26.35;71.51
34177;BME280;20450;49.074;9.158;2023-08-20T05:41:36;100103.72;;;27.09;68.49
34177;BME280;20450;49.074;9.158;2023-08-20T05:44:06;100103.19;;;27.78;65.54
34177;BME280;20450;49.074;9.158;2023-08-20T05:46:35;100113.19;;;28.40;63.57
34177;BME280;20450;49.074;9.158;2023-08-20T05:49:03;100108.19;;;29.07;60.91
34177;BME280;20450;49.074;9.158;2023-08-20T05:51:33;100110.00;;;29.11;60.46
34177;BME280;20450;49.074;9.158;2023-08-20T05:54:00;100122.41;;;28.97;60.43
34177;BME280;20450;49.074;9.158;2023-08-20T05:56:28;100125.81;;;28.85;61.35
34177;BME280;20450;49.074;9.158;2023-08-20T05:58:55;100126.56;;;29.16;60.58
34177;BME280;20450;49.074;9.158;2023-08-20T06:01:23;100119.03;;;29.59;58.75
34177;BME280;20450;49.074;9.158;2023-08-20T06:03:52;100127.53;;;29.20;59.86
34177;BME280;20450;49.074;9.158;2023-08-20T06:06:21;100133.66;;;28.92;60.74
34177;BME280;20450;49.074;9.158;2023-08-20T06:08:49;100125.19;;;28.49;61.84
34177;BME280;20450;49.074;9.158;2023-08-20T06:11:34;100135.63;;;28.13;63.46
34177;BME280;20450;49.074;9.158;2023-08-20T06:14:01;100135.97;;;28.98;61.53
34177;BME280;20450;49.074;9.158;2023-08-20T06:16:31;100138.97;;;29.95;59.34
34177;BME280;20450;49.074;9.158;2023-08-20T06:19:01;100151.59;;;30.65;56.47
34177;BME280;20450;49.074;9.158;2023-08-20T06:21:35;100143.34;;;31.06;55.70
34177;BME280;20450;49.074;9.158;2023-08-20T06:24:02;100145.13;;;31.60;53.99
34177;BME280;20450;49.074;9.158;2023-08-20T06:26:32;100150.22;;;31.99;51.80
34177;BME280;20450;49.074;9.158;2023-08-20T06:29:02;100150.88;;;31.75;52.31
34177;BME280;20450;49.074;9.158;2023-08-20T06:31:31;100153.13;;;31.20;53.50
34177;BME280;20450;49.074;9.158;2023-08-20T06:34:01;100143.13;;;30.53;55.10
34177;BME280;20450;49.074;9.158;2023-08-20T06:36:28;100139.81;;;29.45;58.59
34177;BME280;20450;49.074;9.158;2023-08-20T06:38:55;100146.88;;;29.42;58.65
34177;BME280;20450;49.074;9.158;2023-08-20T06:41:24;100151.19;;;28.92;60.63
34177;BME280;20450;49.074;9.158;2023-08-20T06:43:51;100154.53;;;29.11;60.52
34177;BME280;20450;49.074;9.158;2023-08-20T06:46:21;100150.81;;;29.75;58.81
34177;BME280;20450;49.074;9.158;2023-08-20T06:48:49;100150.03;;;30.47;56.94
34177;BME280;20450;49.074;9.158;2023-08-20T06:51:21;100141.09;;;29.98;57.49
34177;BME280;20450;49.074;9.158;2023-08-20T06:53:48;100145.91;;;29.81;58.96
34177;BME280;20450;49.074;9.158;2023-08-20T06:56:16;100148.84;;;29.67;59.51
34177;BME280;20450;49.074;9.158;2023-08-20T06:58:47;100149.53;;;29.73;59.26
34177;BME280;20450;49.074;9.158;2023-08-20T07:01:16;100147.78;;;30.31;57.65
34177;BME280;20450;49.074;9.158;2023-08-20T07:03:44;100141.53;;;30.81;56.33
34177;BME280;20450;49.074;9.158;2023-08-20T07:06:12;100123.66;;;30.35;57.75
34177;BME280;20450;49.074;9.158;2023-08-20T07:08:43;100146.16;;;31.55;54.13
34177;BME280;20450;49.074;9.158;2023-08-20T07:11:11;100156.09;;;32.18;52.37
34177;BME280;20450;49.074;9.158;2023-08-20T07:13:38;100163.69;;;32.98;50.51
34177;BME280;20450;49.074;9.158;2023-08-20T07:16:10;100162.28;;;33.04;49.29
34177;BME280;20450;49.074;9.158;2023-08-20T07:18:38;100167.84;;;32.68;50.85
34177;BME280;20450;49.074;9.158;2023-08-20T07:21:06;100182.06;;;33.59;48.64
34177;BME280;20450;49.074;9.158;2023-08-20T07:23:33;100190.25;;;34.20;46.86
34177;BME280;20450;49.074;9.158;2023-08-20T07:26:08;100188.75;;;33.82;47.10
34177;BME280;20450;49.074;9.158;2023-08-20T07:28:36;100178.81;;;33.33;48.16
34177;BME280;20450;49.074;9.158;2023-08-20T07:31:03;100181.06;;;33.04;49.55
34177;BME280;20450;49.074;9.158;2023-08-20T07:33:31;100174.53;;;31.98;52.11
34177;BME280;20450;49.074;9.158;2023-08-20T07:36:00;100177.06;;;31.50;54.04
34177;BME280;20450;49.074;9.158;2023-08-20T07:38:28;100178.84;;;32.29;52.55
34177;BME280;20450;49.074;9.158;2023-08-20T07:40:55;100174.72;;;31.03;55.72
34177;BME280;20450;49.074;9.158;2023-08-20T07:43:26;100171.66;;;31.25;55.00
34177;BME280;20450;49.074;9.158;2023-08-20T07:45:53;100184.88;;;32.18;52.30
34177;BME280;20450;49.074;9.158;2023-08-20T07:48:21;100187.66;;;32.51;51.48
34177;BME280;20450;49.074;9.158;2023-08-20T07:50:51;100190.06;;;33.09;50.27
34177;BME280;20450;49.074;9.158;2023-08-20T07:53:21;100192.44;;;34.26;47.23
34177;BME280;20450;49.074;9.158;2023-08-20T07:55:56;100191.09;;;34.94;45.62
34177;BME280;20450;49.074;9.158;2023-08-20T07:58:25;100188.84;;;35.00;45.26
34177;BME280;20450;49.074;9.158;2023-08-20T08:00:57;100189.84;;;34.92;45.21
34177;BME280;20450;49.074;9.158;2023-08-20T08:03:27;100194.91;;;35.52;44.55
34177;BME280;20450;49.074;9.158;2023-08-20T08:05:56;100195.69;;;35.68;43.14
34177;BME280;20450;49.074;9.158;2023-08-20T08:08:26;100191.66;;;36.04;43.29
34177;BME280;20450;49.074;9.158;2023-08-20T08:10:54;100191.00;;;36.29;42.58
34177;BME280;20450;49.074;9.158;2023-08-20T08:13:27;100185.78;;;35.74;42.81
34177;BME280;20450;49.074;9.158;2023-08-20T08:15:55;100182.41;;;35.84;43.10
34177;BME280;20450;49.074;9.158;2023-08-20T08:18:23;100183.03;;;35.58;43.41
34177;BME280;20450;49.074;9.158;2023-08-20T08:20:54;100185.31;;;35.53;43.63
34177;BME280;20450;49.074;9.158;2023-08-20T08:23:22;100186.91;;;35.35;43.61
34177;BME280;20450;49.074;9.158;2023-08-20T08:25:52;100185.41;;;35.76;42.86
34177;BME280;20450;49.074;9.158;2023-08-20T08:28:23;100188.22;;;35.76;42.28
34177;BME280;20450;49.074;9.158;2023-08-20T08:30:54;100191.41;;;36.31;41.38
34177;BME280;20450;49.074;9.158;2023-08-20T08:33:22;100189.13;;;36.78;40.36
34177;BME280;20450;49.074;9.158;2023-08-20T08:35:50;100192.56;;;36.72;40.71
34177;BME280;20450;49.074;9.158;2023-08-20T08:38:18;100184.03;;;35.85;41.97
34177;BME280;20450;49.074;9.158;2023-08-20T08:40:47;100185.81;;;34.19;45.32
34177;BME280;20450;49.074;9.158;2023-08-20T08:43:18;100182.03;;;32.96;49.32
34177;BME280;20450;49.074;9.158;2023-08-20T08:45:46;100187.94;;;33.18;49.19
34177;BME280;20450;49.074;9.158;2023-08-20T08:48:19;100192.09;;;32.52;50.87
34177;BME280;20450;49.074;9.158;2023-08-20T08:50:49;100189.38;;;32.88;50.89
34177;BME280;20450;49.074;9.158;2023-08-20T08:53:23;100183.28;;;32.98;50.05
34177;BME280;20450;49.074;9.158;2023-08-20T08:55:53;100186.09;;;33.22;49.82
34177;BME280;20450;49.074;9.158;2023-08-20T08:58:21;100180.88;;;33.60;48.97
34177;BME280;20450;49.074;9.158;2023-08-20T09:00:50;100191.91;;;33.93;48.16
34177;BME280;20450;49.074;9.158;2023-08-20T09:03:20;100194.78;;;34.24;46.70
34177;BME280;20450;49.074;9.158;2023-08-20T09:08:16;100189.72;;;34.42;46.50
34177;BME280;20450;49.074;9.158;2023-08-20T09:10:26;100192.72;;;34.80;45.05
34177;BME280;20450;49.074;9.158;2023-08-20T09:13:07;100189.75;;;34.88;44.75
34177;BME280;20450;49.074;9.158;2023-08-20T09:15:45;100185.91;;;34.50;45.59
34177;BME280;20450;49.074;9.158;2023-08-20T09:18:12;100174.34;;;34.67;47.68
34177;BME280;20450;49.074;9.158;2023-08-20T09:20:41;100185.47;;;35.10;45.34
34177;BME280;20450;49.074;9.158;2023-08-20T09:23:11;100188.09;;;35.34;43.33
34177;BME280;20450;49.074;9.158;2023-08-20T09:25:38;100182.72;;;35.44;44.41
34177;BME280;20450;49.074;9.158;2023-08-20T09:28:06;100180.50;;;35.03;46.21
34177;BME280;20450;49.074;9.158;2023-08-20T09:30:39;100168.44;;;35.03;49.03
34177;BME280;20450;49.074;9.158;2023-08-20T09:33:09;100171.03;;;34.92;46.22
34177;BME280;20450;49.074;9.158;2023-08-20T09:35:38;100174.94;;;35.22;46.29
34177;BME280;20450;49.074;9.158;2023-08-20T09:38:25;100180.81;;;35.67;45.86
34177;BME280;20450;49.074;9.158;2023-08-20T09:40:54;100176.16;;;36.13;46.26
34177;BME280;20450;49.074;9.158;2023-08-20T09:43:24;100180.31;;;36.38;45.35
34177;BME280;20450;49.074;9.158;2023-08-20T09:45:59;100181.00;;;36.54;44.99
34177;BME280;20450;49.074;9.158;2023-08-20T09:48:34;100182.94;;;36.73;45.95
34177;BME280;20450;49.074;9.158;2023-08-20T09:51:10;100182.19;;;36.53;44.79
34177;BME280;20450;49.074;9.158;2023-08-20T09:53:49;100174.19;;;36.55;44.44
34177;BME280;20450;49.074;9.158;2023-08-20T09:56:27;100174.13;;;36.74;43.80
34177;BME280;20450;49.074;9.158;2023-08-20T09:58:56;100172.91;;;36.98;42.88
34177;BME280;20450;49.074;9.158;2023-08-20T10:01:25;100172.84;;;37.17;42.41
34177;BME280;20450;49.074;9.158;2023-08-20T10:03:54;100161.41;;;37.32;43.94
34177;BME280;20450;49.074;9.158;2023-08-20T10:06:25;100170.72;;;37.10;42.19
34177;BME280;20450;49.074;9.158;2023-08-20T10:08:56;100174.00;;;36.90;41.33
34177;BME280;20450;49.074;9.158;2023-08-20T10:11:32;100168.97;;;37.02;42.35
34177;BME280;20450;49.074;9.158;2023-08-20T10:14:00;100173.09;;;37.08;43.34
34177;BME280;20450;49.074;9.158;2023-08-20T10:16:28;100176.34;;;37.10;42.25
34177;BME280;20450;49.074;9.158;2023-08-20T10:18:55;100179.22;;;37.14;41.11
34177;BME280;20450;49.074;9.158;2023-08-20T10:21:27;100176.06;;;36.70;42.38
34177;BME280;20450;49.074;9.158;2023-08-20T10:24:03;100188.25;;;36.55;39.44
34177;BME280;20450;49.074;9.158;2023-08-20T10:26:35;100180.34;;;36.83;40.72
34177;BME280;20450;49.074;9.158;2023-08-20T10:29:37;100179.47;;;37.28;41.41
34177;BME280;20450;49.074;9.158;2023-08-20T10:32:06;100184.88;;;37.99;39.39
34177;BME280;20450;49.074;9.158;2023-08-20T10:34:42;100182.66;;;38.12;39.10
34177;BME280;20450;49.074;9.158;2023-08-20T10:37:26;100185.31;;;38.01;36.80
34177;BME280;20450;49.074;9.158;2023-08-20T10:39:56;100183.69;;;38.33;36.94
34177;BME280;20450;49.074;9.158;2023-08-20T10:42:26;100177.91;;;38.56;37.13
34177;BME280;20450;49.074;9.158;2023-08-20T10:45:05;100188.19;;;39.22;34.51
34177;BME280;20450;49.074;9.158;2023-08-20T10:47:40;100179.31;;;38.76;36.07
34177;BME280;20450;49.074;9.158;2023-08-20T10:50:10;100179.38;;;39.34;34.76
34177;BME280;20450;49.074;9.158;2023-08-20T10:52:39;100177.13;;;39.57;33.86
34177;BME280;20450;49.074;9.158;2023-08-20T10:55:16;100173.66;;;39.91;33.00
34177;BME280;20450;49.074;9.158;2023-08-20T10:57:54;100165.19;;;39.95;33.50
34177;BME280;20450;49.074;9.158;2023-08-20T11:00:25;100175.44;;;40.34;32.89
34177;BME280;20450;49.074;9.158;2023-08-20T11:02:55;100169.88;;;39.59;32.84
34177;BME280;20450;49.074;9.158;2023-08-20T11:05:24;100160.72;;;38.35;34.91
34177;BME280;20450;49.074;9.158;2023-08-20T11:07:52;100149.88;;;38.37;36.16
34177;BME280;20450;49.074;9.158;2023-08-20T11:10:29;100156.41;;;38.88;34.88
34177;BME280;20450;49.074;9.158;2023-08-20T11:13:01;100153.53;;;36.93;36.07
34177;BME280;20450;49.074;9.158;2023-08-20T11:15:29;100149.16;;;37.47;37.00
34177;BME280;20450;49.074;9.158;2023-08-20T11:17:57;100153.34;;;37.90;36.11
34177;BME280;20450;49.074;9.158;2023-08-20T11:20:25;100150.97;;;38.65;35.05
34177;BME280;20450;49.074;9.158;2023-08-20T11:22:53;100152.63;;;39.17;33.99
34177;BME280;20450;49.074;9.158;2023-08-20T11:25:24;100152.31;;;39.36;33.64
34177;BME280;20450;49.074;9.158;2023-08-20T11:27:55;100154.56;;;39.71;32.76
34177;BME280;20450;49.074;9.158;2023-08-20T11:30:29;100156.75;;;40.19;31.90
34177;BME280;20450;49.074;9.158;2023-08-20T11:32:59;100163.34;;;40.58;30.71
34177;BME280;20450;49.074;9.158;2023-08-20T11:35:27;100155.28;;;40.67;30.93
34177;BME280;20450;49.074;9.158;2023-08-20T11:37:58;100156.88;;;40.54;31.23
34177;BME280;20450;49.074;9.158;2023-08-20T11:40:27;100149.19;;;40.58;31.69
34177;BME280;20450;49.074;9.158;2023-08-20T11:42:54;100141.81;;;40.15;31.27
34177;BME280;20450;49.074;9.158;2023-08-20T11:45:22;100146.75;;;40.46;31.15
34177;BME280;20450;49.074;9.158;2023-08-20T11:47:55;100143.91;;;40.32;31.97
34177;BME280;20450;49.074;9.158;2023-08-20T11:50:27;100138.44;;;39.78;31.67
34177;BME280;20450;49.074;9.158;2023-08-20T11:53:02;100125.63;;;39.27;33.03
34177;BME280;20450;49.074;9.158;2023-08-20T11:55:41;100135.97;;;38.58;33.46
34177;BME280;20450;49.074;9.158;2023-08-20T11:58:12;100131.03;;;38.11;33.71
34177;BME280;20450;49.074;9.158;2023-08-20T12:00:39;100124.63;;;37.52;35.06
34177;BME280;20450;49.074;9.158;2023-08-20T12:03:08;100117.19;;;37.10;35.83
34177;BME280;20450;49.074;9.158;2023-08-20T12:05:36;100116.47;;;36.68;38.21
34177;BME280;20450;49.074;9.158;2023-08-20T12:08:04;100112.69;;;36.57;38.45
34177;BME280;20450;49.074;9.158;2023-08-20T12:10:33;100107.03;;;36.12;38.80
34177;BME280;20450;49.074;9.158;2023-08-20T12:13:10;100105.03;;;36.13;39.23
34177;BME280;20450;49.074;9.158;2023-08-20T12:15:38;100110.16;;;35.69;38.97
34177;BME280;20450;49.074;9.158;2023-08-20T12:18:09;100108.81;;;35.09;39.74
34177;BME280;20450;49.074;9.158;2023-08-20T12:20:38;100108.41;;;34.92;38.67
34177;BME280;20450;49.074;9.158;2023-08-20T12:23:06;100103.44;;;34.85;39.48
34177;BME280;20450;49.074;9.158;2023-08-20T12:25:36;100106.06;;;34.94;39.41
34177;BME280;20450;49.074;9.158;2023-08-20T12:28:04;100116.84;;;34.92;36.54
34177;BME280;20450;49.074;9.158;2023-08-20T12:30:31;100104.75;;;35.07;38.00
34177;BME280;20450;49.074;9.158;2023-08-20T12:33:04;100102.44;;;35.28;37.89
34177;BME280;20450;49.074;9.158;2023-08-20T12:35:31;100096.84;;;35.12;38.96
34177;BME280;20450;49.074;9.158;2023-08-20T12:37:59;100100.78;;;35.27;38.44
34177;BME280;20450;49.074;9.158;2023-08-20T12:40:30;100101.16;;;35.25;37.09
34177;BME280;20450;49.074;9.158;2023-08-20T12:43:01;100102.34;;;35.40;37.08
34177;BME280;20450;49.074;9.158;2023-08-20T12:45:29;100096.13;;;35.50;37.70
34177;BME280;20450;49.074;9.158;2023-08-20T12:47:56;100100.91;;;35.15;38.26
34177;BME280;20450;49.074;9.158;2023-08-20T12:50:27;100096.28;;;35.22;37.63
34177;BME280;20450;49.074;9.158;2023-08-20T12:52:54;100093.09;;;35.24;37.69
34177;BME280;20450;49.074;9.158;2023-08-20T12:55:22;100087.28;;;34.98;36.72
34177;BME280;20450;49.074;9.158;2023-08-20T12:57:53;100083.13;;;34.76;37.59
34177;BME280;20450;49.074;9.158;2023-08-20T13:00:26;100078.13;;;33.92;38.67
34177;BME280;20450;49.074;9.158;2023-08-20T13:02:56;100076.53;;;34.07;38.18
34177;BME280;20450;49.074;9.158;2023-08-20T13:05:26;100074.50;;;33.91;38.81
34177;BME280;20450;49.074;9.158;2023-08-20T13:07:55;100074.97;;;34.09;38.53
34177;BME280;20450;49.074;9.158;2023-08-20T13:10:24;100074.47;;;33.76;38.68
34177;BME280;20450;49.074;9.158;2023-08-20T13:13:00;100071.31;;;32.98;41.42
34177;BME280;20450;49.074;9.158;2023-08-20T13:15:30;100064.88;;;32.98;41.86